createdAt,value
2022-12-12T00:00:23.629Z,4.90
2022-12-12T00:02:50.944Z,4.63
2022-12-12T00:05:19.495Z,6.67
2022-12-12T00:07:46.692Z,5.67
2022-12-12T00:10:14.073Z,5.20
2022-12-12T00:12:41.642Z,5.63
2022-12-12T00:15:09.074Z,4.83
2022-12-12T00:17:36.244Z,4.90
2022-12-12T00:20:04.250Z,4.77
2022-12-12T00:22:31.432Z,4.97
2022-12-12T00:24:58.633Z,4.97
2022-12-12T00:27:25.863Z,4.43
2022-12-12T00:29:56.283Z,4.77
2022-12-12T00:32:23.500Z,4.30
2022-12-12T00:34:50.688Z,4.30
2022-12-12T00:37:18.399Z,4.03
2022-12-12T00:39:46.014Z,4.63
2022-12-12T00:42:13.211Z,4.67
2022-12-12T00:44:40.462Z,3.80
2022-12-12T00:47:07.699Z,4.27
2022-12-12T00:49:35.030Z,5.60
2022-12-12T00:52:02.299Z,4.07
2022-12-12T00:54:29.461Z,3.90
2022-12-12T00:56:56.688Z,3.73
2022-12-12T00:59:23.884Z,3.57
2022-12-12T01:01:51.113Z,4.03
2022-12-12T01:04:18.340Z,3.90
2022-12-12T01:06:45.556Z,4.10
2022-12-12T01:09:12.773Z,3.30
2022-12-12T01:11:40.012Z,3.77
2022-12-12T01:14:07.200Z,3.93
2022-12-12T01:16:34.520Z,3.93
2022-12-12T01:19:01.818Z,4.03
2022-12-12T01:21:29.031Z,3.00
2022-12-12T01:23:56.203Z,4.20
2022-12-12T01:26:24.883Z,3.47
2022-12-12T01:28:52.565Z,4.73
2022-12-12T01:31:20.043Z,4.00
2022-12-12T01:33:47.621Z,3.53
2022-12-12T01:36:16.655Z,3.60
2022-12-12T01:38:47.616Z,2.93
2022-12-12T01:41:15.331Z,3.27
2022-12-12T01:43:43.082Z,3.50
2022-12-12T01:46:25.358Z,3.40
2022-12-12T01:48:54.232Z,2.67
2022-12-12T01:51:22.942Z,3.13
2022-12-12T01:53:52.682Z,3.37
2022-12-12T01:56:20.698Z,2.90
2022-12-12T01:58:49.854Z,3.23
2022-12-12T02:01:17.120Z,4.20
2022-12-12T02:03:45.096Z,3.20
2022-12-12T02:06:15.762Z,3.70
2022-12-12T02:08:43.312Z,3.23
2022-12-12T02:11:10.541Z,3.27
2022-12-12T02:13:37.855Z,3.30
2022-12-12T02:16:05.150Z,2.90
2022-12-12T02:18:41.409Z,3.20
2022-12-12T02:21:27.753Z,2.93
2022-12-12T02:24:09.206Z,3.43
2022-12-12T02:26:51.640Z,3.13
2022-12-12T02:29:25.924Z,2.90
2022-12-12T02:31:54.937Z,3.07
2022-12-12T02:34:34.263Z,2.67
2022-12-12T02:37:07.184Z,2.57
2022-12-12T02:39:40.260Z,2.90
2022-12-12T02:42:11.250Z,2.90
2022-12-12T02:44:44.308Z,2.40
2022-12-12T02:47:11.442Z,2.20
2022-12-12T02:49:44.795Z,2.50
2022-12-12T02:52:12.155Z,2.20
2022-12-12T02:54:39.815Z,2.03
2022-12-12T02:57:14.238Z,2.60
2022-12-12T02:59:42.799Z,2.43
2022-12-12T03:02:09.993Z,2.83
2022-12-12T03:05:15.031Z,2.30
2022-12-12T03:07:54.419Z,4.37
2022-12-12T03:10:30.872Z,2.53
2022-12-12T03:13:05.277Z,2.03
2022-12-12T03:15:32.439Z,2.70
2022-12-12T03:18:05.712Z,2.47
2022-12-12T03:20:46.289Z,2.33
2022-12-12T03:23:18.679Z,2.80
2022-12-12T03:26:04.886Z,2.50
2022-12-12T03:28:33.925Z,2.37
2022-12-12T03:31:04.641Z,2.33
2022-12-12T03:33:40.586Z,2.20
2022-12-12T03:36:16.768Z,2.43
2022-12-12T03:38:45.819Z,2.53
2022-12-12T03:41:16.472Z,2.67
2022-12-12T03:43:53.071Z,4.60
2022-12-12T03:46:24.767Z,2.17
2022-12-12T03:48:56.338Z,2.27
2022-12-12T03:51:31.270Z,2.47
2022-12-12T03:53:58.462Z,1.97
2022-12-12T03:56:25.627Z,2.23
2022-12-12T03:59:11.442Z,2.27
2022-12-12T04:01:44.726Z,2.00
2022-12-12T04:04:26.989Z,2.30
2022-12-12T04:07:02.252Z,2.00
2022-12-12T04:09:48.999Z,1.80
2022-12-12T04:12:43.004Z,2.37
2022-12-12T04:15:13.283Z,1.90
2022-12-12T04:17:43.554Z,1.97
2022-12-12T04:20:49.549Z,2.37
2022-12-12T04:23:35.031Z,2.13
2022-12-12T04:26:23.720Z,2.00
2022-12-12T04:29:17.281Z,2.10
2022-12-12T04:31:48.596Z,2.13
2022-12-12T04:34:18.579Z,2.40
2022-12-12T04:36:47.815Z,2.70
2022-12-12T04:39:17.689Z,1.77
2022-12-12T04:41:46.262Z,1.90
2022-12-12T04:44:15.044Z,2.43
2022-12-12T04:46:42.835Z,1.80
2022-12-12T04:49:18.138Z,2.20
2022-12-12T04:51:47.980Z,1.70
2022-12-12T04:54:19.521Z,2.23
2022-12-12T04:56:48.548Z,2.37
2022-12-12T04:59:15.748Z,1.93
2022-12-12T05:01:51.133Z,2.03
2022-12-12T05:04:30.069Z,2.07
2022-12-12T05:07:03.558Z,2.00
2022-12-12T05:09:30.781Z,3.10
2022-12-12T05:11:58.574Z,2.50
2022-12-12T05:14:25.766Z,2.30
2022-12-12T05:16:54.115Z,1.60
2022-12-12T05:19:21.352Z,2.07
2022-12-12T05:21:49.253Z,1.87
2022-12-12T05:24:16.498Z,2.57
2022-12-12T05:26:43.672Z,1.90
2022-12-12T05:29:12.182Z,1.80
2022-12-12T05:31:39.382Z,1.80
2022-12-12T05:34:06.619Z,2.23
2022-12-12T05:36:33.826Z,2.27
2022-12-12T05:39:01.014Z,4.40
2022-12-12T05:41:28.319Z,2.27
2022-12-12T05:43:55.576Z,1.80
2022-12-12T05:46:22.807Z,2.37
2022-12-12T05:48:50.878Z,1.90
2022-12-12T05:51:18.711Z,1.60
2022-12-12T05:53:46.066Z,2.10
2022-12-12T05:56:13.317Z,1.83
2022-12-12T05:58:40.817Z,2.03
2022-12-12T06:01:08.515Z,2.20
2022-12-12T06:03:36.176Z,1.67
2022-12-12T06:06:03.964Z,1.70
2022-12-12T06:08:31.291Z,2.30
2022-12-12T06:10:58.547Z,2.00
2022-12-12T06:13:25.964Z,1.70
2022-12-12T06:15:53.271Z,2.30
2022-12-12T06:18:20.615Z,1.77
2022-12-12T06:20:47.846Z,2.00
2022-12-12T06:23:15.075Z,2.00
2022-12-12T06:25:42.282Z,2.20
2022-12-12T06:28:09.553Z,1.90
2022-12-12T06:30:36.772Z,2.30
2022-12-12T06:33:04.004Z,1.80
2022-12-12T06:35:31.214Z,4.73
2022-12-12T06:37:58.419Z,2.40
2022-12-12T06:40:25.606Z,2.43
2022-12-12T06:42:52.994Z,2.00
2022-12-12T06:45:20.187Z,23.10
2022-12-12T06:47:47.403Z,30.50
2022-12-12T06:50:16.831Z,26.60
2022-12-12T06:52:49.203Z,35.70
2022-12-12T06:55:16.428Z,32.23
2022-12-12T06:57:43.603Z,36.87
2022-12-12T07:00:11.087Z,43.93
2022-12-12T07:02:38.381Z,42.53
2022-12-12T07:05:05.774Z,38.07
2022-12-12T07:07:32.921Z,43.83
2022-12-12T07:10:00.471Z,34.87
2022-12-12T07:12:27.680Z,37.90
2022-12-12T07:14:54.961Z,32.70
2022-12-12T07:17:22.766Z,32.40
2022-12-12T07:19:49.960Z,27.20
2022-12-12T07:22:17.227Z,32.27
2022-12-12T07:24:44.552Z,33.03
2022-12-12T07:27:14.554Z,31.57
2022-12-12T07:29:44.245Z,31.10
2022-12-12T07:32:11.566Z,32.57
2022-12-12T07:34:38.782Z,27.53
2022-12-12T07:37:06.018Z,24.20
2022-12-12T07:39:33.973Z,25.27
2022-12-12T07:42:01.359Z,29.73
2022-12-12T07:44:28.565Z,27.20
2022-12-12T07:46:58.704Z,32.20
2022-12-12T07:49:26.070Z,28.30
2022-12-12T07:51:53.269Z,20.90
2022-12-12T07:54:20.619Z,24.30
2022-12-12T07:56:48.021Z,21.57
2022-12-12T07:59:15.268Z,21.40
2022-12-12T08:01:42.824Z,25.97
2022-12-12T08:04:10.094Z,13.87
2022-12-12T08:06:37.297Z,18.10
2022-12-12T08:09:04.621Z,16.23
2022-12-12T08:11:31.807Z,14.00
2022-12-12T08:13:59.355Z,16.33
2022-12-12T08:16:27.995Z,12.10
2022-12-12T08:18:56.008Z,11.30
2022-12-12T08:21:26.089Z,14.43
2022-12-12T08:24:00.341Z,12.77
2022-12-12T08:26:27.728Z,12.60
2022-12-12T08:28:55.291Z,10.40
2022-12-12T08:31:23.217Z,9.93
2022-12-12T08:33:50.911Z,7.90
2022-12-12T08:36:19.767Z,11.37
2022-12-12T08:38:47.069Z,11.67
2022-12-12T08:41:14.589Z,9.87
2022-12-12T08:43:42.530Z,12.00
2022-12-12T08:46:16.807Z,13.63
2022-12-12T08:48:45.406Z,10.20
2022-12-12T08:51:12.722Z,11.50
2022-12-12T08:53:39.909Z,11.00
2022-12-12T08:56:07.325Z,10.43
2022-12-12T08:58:34.565Z,10.63
2022-12-12T09:01:01.797Z,11.03
2022-12-12T09:03:29.655Z,12.03
2022-12-12T09:05:57.208Z,11.20
2022-12-12T09:08:24.595Z,11.03
2022-12-12T09:10:52.005Z,10.53
2022-12-12T09:41:20.506Z,9.50
2022-12-12T09:43:55.441Z,9.67
2022-12-12T09:46:26.533Z,10.07
2022-12-12T09:48:56.475Z,9.07
2022-12-12T09:51:23.985Z,10.67
2022-12-12T09:53:51.676Z,11.60
2022-12-12T09:56:39.080Z,9.00
2022-12-12T09:59:10.067Z,9.20
2022-12-12T10:01:49.616Z,9.63
2022-12-12T10:04:29.143Z,8.43
2022-12-12T10:07:01.325Z,9.23
2022-12-12T10:09:40.699Z,9.13
2022-12-12T10:12:12.149Z,9.70
2022-12-12T10:14:41.494Z,10.63
2022-12-12T10:17:19.780Z,11.77
2022-12-12T10:19:49.106Z,12.90
2022-12-12T10:22:35.211Z,11.13
2022-12-12T10:25:17.725Z,11.60
2022-12-12T10:27:44.947Z,10.83
2022-12-12T10:30:16.670Z,11.63
2022-12-12T10:33:04.182Z,11.23
2022-12-12T10:35:42.139Z,11.23
2022-12-12T10:38:24.310Z,13.60
2022-12-12T10:40:51.457Z,12.43
2022-12-12T10:43:29.812Z,13.30
2022-12-12T10:46:06.231Z,12.47
2022-12-12T10:48:33.592Z,14.03
2022-12-12T10:51:02.843Z,12.00
2022-12-12T10:53:30.673Z,11.97
2022-12-12T10:56:00.320Z,11.60
2022-12-12T10:58:28.561Z,12.57
2022-12-12T11:01:03.348Z,11.70
2022-12-12T11:03:36.256Z,12.43
2022-12-12T11:06:13.154Z,11.90
2022-12-12T11:08:52.714Z,11.70
2022-12-12T11:11:21.419Z,13.73
2022-12-12T11:13:56.023Z,12.97
2022-12-12T11:16:25.165Z,14.90
2022-12-12T11:19:17.114Z,13.13
2022-12-12T11:21:45.711Z,13.30
2022-12-12T11:24:19.129Z,12.60
2022-12-12T11:26:48.166Z,13.13
2022-12-12T11:29:26.466Z,14.07
2022-12-12T11:31:54.034Z,12.63
2022-12-12T11:34:22.089Z,12.80
2022-12-12T11:36:49.254Z,13.23
2022-12-12T11:39:21.809Z,14.60
2022-12-12T11:41:59.031Z,13.13
2022-12-12T11:44:27.144Z,13.47
2022-12-12T11:46:54.322Z,14.53
2022-12-12T11:49:21.512Z,14.13
2022-12-12T11:51:48.684Z,13.87
2022-12-12T11:54:15.842Z,13.30
2022-12-12T11:56:43.160Z,13.67
2022-12-12T11:59:19.764Z,13.43
2022-12-12T12:01:46.904Z,13.00
2022-12-12T12:04:31.201Z,13.70
2022-12-12T12:07:04.704Z,13.37
2022-12-12T12:09:31.912Z,12.63
2022-12-12T12:11:59.117Z,14.23
2022-12-12T12:14:35.276Z,16.27
2022-12-12T12:17:20.500Z,20.70
2022-12-12T12:19:47.677Z,19.73
2022-12-12T12:22:33.821Z,27.47
2022-12-12T12:25:07.033Z,22.97
2022-12-12T12:27:40.134Z,24.00
2022-12-12T12:30:07.484Z,26.40
2022-12-12T12:32:40.693Z,23.10
2022-12-12T12:35:10.880Z,22.10
2022-12-12T12:37:59.120Z,23.87
2022-12-12T12:40:34.496Z,24.33
2022-12-12T12:43:16.972Z,22.53
2022-12-12T12:45:51.805Z,27.77
2022-12-12T12:48:22.389Z,24.23
2022-12-12T12:51:04.302Z,27.70
2022-12-12T12:53:37.472Z,25.63
2022-12-12T12:56:09.859Z,25.70
2022-12-12T12:58:43.037Z,23.57
2022-12-12T13:01:13.794Z,21.63
2022-12-12T13:24:33.497Z,18.03
2022-12-12T13:27:16.527Z,16.73
2022-12-12T13:29:43.708Z,17.40
2022-12-12T13:32:24.345Z,20.33
2022-12-12T13:34:53.201Z,15.10
2022-12-12T13:37:21.768Z,18.77
2022-12-12T13:39:58.580Z,14.10
2022-12-12T13:42:25.701Z,15.67
2022-12-12T13:44:53.061Z,14.37
2022-12-12T13:47:22.933Z,17.27
2022-12-12T13:49:52.929Z,14.53
2022-12-12T13:52:30.361Z,15.40
2022-12-12T13:55:12.954Z,15.57
2022-12-12T13:58:02.701Z,14.87
2022-12-12T14:00:31.126Z,13.70
2022-12-12T14:03:04.387Z,13.13
2022-12-12T14:05:35.965Z,14.30
2022-12-12T14:08:05.110Z,12.03
2022-12-12T14:10:38.339Z,12.93
2022-12-12T14:13:26.737Z,14.23
2022-12-12T14:15:56.708Z,13.80
2022-12-12T14:18:29.954Z,12.27
2022-12-12T14:21:05.976Z,11.93
2022-12-12T14:23:34.682Z,10.93
2022-12-12T14:26:02.335Z,14.90
2022-12-12T14:28:33.394Z,10.77
2022-12-12T14:31:06.744Z,11.80
2022-12-12T14:33:37.404Z,10.57
2022-12-12T14:36:16.804Z,13.70
2022-12-12T14:38:52.882Z,10.17
2022-12-12T14:41:21.939Z,9.53
2022-12-12T14:44:34.995Z,9.43
2022-12-12T14:46:42.644Z,12.00
2022-12-12T14:49:14.468Z,9.03
2022-12-12T14:51:42.129Z,10.67
2022-12-12T14:54:17.549Z,9.50
2022-12-12T14:56:52.202Z,9.13
2022-12-12T14:59:22.918Z,9.70
2022-12-12T15:01:59.978Z,7.33
2022-12-12T15:04:32.036Z,9.40
2022-12-12T15:07:00.441Z,10.63
2022-12-12T15:09:32.151Z,9.43
2022-12-12T15:12:11.612Z,9.47
2022-12-12T15:14:54.397Z,8.20
2022-12-12T15:17:21.663Z,9.00
2022-12-12T15:19:56.988Z,7.60
2022-12-12T15:22:24.190Z,7.73
2022-12-12T15:24:51.804Z,7.77
2022-12-12T15:27:28.797Z,8.27
2022-12-12T15:29:56.804Z,8.40
2022-12-12T15:32:24.865Z,7.80
2022-12-12T15:35:00.520Z,7.47
2022-12-12T15:37:27.670Z,7.00
2022-12-12T15:39:58.706Z,6.57
2022-12-12T15:42:26.108Z,7.27
2022-12-12T15:44:53.385Z,8.07
2022-12-12T15:47:21.030Z,7.10
2022-12-12T15:49:48.446Z,7.23
2022-12-12T15:52:25.638Z,6.67
2022-12-12T15:55:00.195Z,6.30
2022-12-12T15:57:28.714Z,8.03
2022-12-12T15:59:57.264Z,6.40
2022-12-12T16:02:24.941Z,6.27
2022-12-12T16:04:56.088Z,6.53
2022-12-12T16:07:23.978Z,6.83
2022-12-12T16:09:58.083Z,6.80
2022-12-12T16:12:43.915Z,6.00
2022-12-12T16:15:21.003Z,5.97
2022-12-12T16:18:03.402Z,7.00
2022-12-12T16:20:31.759Z,6.57
2022-12-12T16:23:09.542Z,5.97
2022-12-12T16:25:36.920Z,6.30
2022-12-12T16:28:06.772Z,5.20
2022-12-12T16:30:33.991Z,6.73
2022-12-12T16:33:11.530Z,6.80
2022-12-12T16:35:38.728Z,6.10
2022-12-12T16:38:14.117Z,6.43
2022-12-12T16:40:41.449Z,5.30
2022-12-12T16:43:11.627Z,5.87
2022-12-12T16:45:38.960Z,5.90
2022-12-12T16:48:15.544Z,5.63
2022-12-12T16:50:42.685Z,5.30
2022-12-12T16:53:09.932Z,5.03
2022-12-12T16:55:38.097Z,6.47
2022-12-12T16:58:05.213Z,5.60
2022-12-12T17:00:32.362Z,5.50
2022-12-12T17:02:59.543Z,4.40
2022-12-12T17:05:27.301Z,5.43
2022-12-12T17:07:55.043Z,4.80
2022-12-12T17:10:24.486Z,5.00
2022-12-12T17:12:55.034Z,5.30
2022-12-12T17:15:23.988Z,4.80
2022-12-12T17:17:51.136Z,4.50
2022-12-12T17:20:18.459Z,5.40
2022-12-12T17:22:46.089Z,6.37
2022-12-12T17:25:13.884Z,4.40
2022-12-12T17:27:41.628Z,5.33
2022-12-12T17:30:09.162Z,5.00
2022-12-12T17:32:36.533Z,5.93
2022-12-12T17:35:03.715Z,4.73
2022-12-12T17:37:30.924Z,5.23
2022-12-12T17:39:58.130Z,4.73
2022-12-12T17:42:25.448Z,4.80
2022-12-12T17:44:53.048Z,5.30
2022-12-12T17:47:20.164Z,4.97
2022-12-12T17:49:48.298Z,4.83
2022-12-12T17:52:15.491Z,4.50
2022-12-12T17:54:42.627Z,5.60
2022-12-12T17:57:30.792Z,4.90
2022-12-12T17:59:58.520Z,5.07
2022-12-12T18:02:25.812Z,5.30
2022-12-12T18:04:53.046Z,4.37
2022-12-12T18:07:21.090Z,4.90
2022-12-12T18:09:48.218Z,5.40
2022-12-12T18:12:15.365Z,4.83
2022-12-12T18:14:42.518Z,4.70
2022-12-12T18:17:09.695Z,6.47
2022-12-12T18:19:36.967Z,4.40
2022-12-12T18:22:04.092Z,4.00
2022-12-12T18:24:32.915Z,4.90
2022-12-12T18:27:01.347Z,5.33
2022-12-12T18:29:28.601Z,6.40
2022-12-12T18:31:55.933Z,6.07
2022-12-12T18:34:23.343Z,6.87
2022-12-12T18:36:50.708Z,9.17
2022-12-12T18:39:17.944Z,7.20
2022-12-12T18:41:45.077Z,7.97
2022-12-12T18:44:13.392Z,6.37
2022-12-12T18:46:43.368Z,7.10
2022-12-12T18:49:13.741Z,7.43
2022-12-12T18:51:41.208Z,5.97
2022-12-12T18:54:14.258Z,6.23
2022-12-12T18:56:42.314Z,6.33
2022-12-12T18:59:09.451Z,5.83
2022-12-12T19:01:37.177Z,6.13
2022-12-12T19:04:10.945Z,5.87
2022-12-12T19:06:41.257Z,6.33
2022-12-12T19:09:10.042Z,5.90
2022-12-12T19:11:38.654Z,6.07
2022-12-12T20:07:40.417Z,6.67
2022-12-12T20:10:07.532Z,4.90
2022-12-12T20:12:34.235Z,5.90
2022-12-12T20:15:00.937Z,6.47
2022-12-12T20:17:27.684Z,5.63
2022-12-12T20:19:54.435Z,5.80
2022-12-12T20:22:21.151Z,5.50
2022-12-12T20:24:47.848Z,6.30
2022-12-12T20:27:15.412Z,6.03
2022-12-12T20:29:42.162Z,4.27
2022-12-12T20:32:09.639Z,6.40
2022-12-12T20:34:36.405Z,11.10
2022-12-12T20:37:03.147Z,4.67
2022-12-12T20:39:29.936Z,8.80
2022-12-12T20:41:57.585Z,4.60
2022-12-12T20:44:25.504Z,5.37
2022-12-12T20:46:52.736Z,5.77
2022-12-12T20:49:22.226Z,5.27
2022-12-12T20:51:57.953Z,5.23
2022-12-12T20:54:27.309Z,5.07
2022-12-12T20:56:54.701Z,4.40
2022-12-12T20:59:21.858Z,5.10
2022-12-12T21:01:48.643Z,4.77
2022-12-12T21:04:15.637Z,5.13
2022-12-12T21:06:44.843Z,5.37
2022-12-12T21:09:16.183Z,17.00
2022-12-12T21:11:43.474Z,4.23
2022-12-12T21:14:10.435Z,4.03
2022-12-12T21:16:39.200Z,4.57
2022-12-12T21:19:12.826Z,4.13
2022-12-12T21:21:41.722Z,4.03
2022-12-12T21:24:09.870Z,3.80
2022-12-12T21:26:36.711Z,3.43
2022-12-12T21:29:04.903Z,4.23
2022-12-12T21:31:34.645Z,3.20
2022-12-12T21:34:01.970Z,4.00
2022-12-12T21:36:29.807Z,4.07
2022-12-12T21:38:58.567Z,3.70
2022-12-12T21:41:26.226Z,5.10
2022-12-12T21:43:54.524Z,4.03
2022-12-12T21:46:25.871Z,3.50
2022-12-12T21:49:12.422Z,3.40
2022-12-12T21:51:40.662Z,3.90
2022-12-12T21:54:09.186Z,3.90
2022-12-12T21:56:35.944Z,4.10
2022-12-12T21:59:03.434Z,13.87
2022-12-12T22:01:32.071Z,4.37
2022-12-12T22:03:59.650Z,6.60
2022-12-12T22:06:31.969Z,4.40
2022-12-12T22:09:00.647Z,3.20
2022-12-12T22:11:40.119Z,2.80
2022-12-12T22:14:15.760Z,3.27
2022-12-12T22:16:42.572Z,3.83
2022-12-12T22:19:12.277Z,2.83
2022-12-12T22:21:39.458Z,3.37
2022-12-12T22:24:06.680Z,4.70
2022-12-12T22:26:39.814Z,3.43
2022-12-12T22:29:10.437Z,3.83
2022-12-12T22:31:38.904Z,4.20
2022-12-12T22:34:17.033Z,4.00
2022-12-12T22:36:45.467Z,3.00
2022-12-12T22:39:18.452Z,5.40
2022-12-12T22:41:45.669Z,5.33
2022-12-12T22:44:15.790Z,3.20
2022-12-12T22:46:44.537Z,6.97
2022-12-12T22:49:13.904Z,3.20
2022-12-12T22:51:41.065Z,2.40
2022-12-12T22:54:07.795Z,2.70
2022-12-12T22:56:36.656Z,2.87
2022-12-12T22:59:04.532Z,3.13
2022-12-12T23:01:31.601Z,3.30
2022-12-12T23:03:58.985Z,2.87
2022-12-12T23:06:31.737Z,3.17
2022-12-12T23:09:16.686Z,2.97
2022-12-12T23:11:45.163Z,2.87
2022-12-12T23:14:14.847Z,2.70
2022-12-12T23:16:42.078Z,3.77
2022-12-12T23:19:09.570Z,3.00
2022-12-12T23:21:37.496Z,3.10
2022-12-12T23:24:05.632Z,2.80
2022-12-12T23:26:35.691Z,2.60
2022-12-12T23:29:03.892Z,2.00
2022-12-12T23:31:33.532Z,3.03
2022-12-12T23:34:14.076Z,3.10
2022-12-12T23:36:42.236Z,2.80
2022-12-12T23:39:10.336Z,1.80
2022-12-12T23:41:37.142Z,3.03
2022-12-12T23:44:05.547Z,2.27
2022-12-12T23:46:33.053Z,2.00
2022-12-12T23:49:04.830Z,3.10
2022-12-12T23:51:34.321Z,2.37
2022-12-12T23:54:02.949Z,2.03
2022-12-12T23:56:30.264Z,2.70
2022-12-12T23:58:58.963Z,2.67
